sensor_id;sensor_type;location;lat;lon;timestamp;P1;durP1;ratioP1;P2;durP2;ratioP2
29370;SDS011;16357;52.188;7.838;2023-02-13T00:00:14;23.83;;;14.82;;
29370;SDS011;16357;52.188;7.838;2023-02-13T00:02:43;19.67;;;14.25;;
29370;SDS011;16357;52.188;7.838;2023-02-13T00:05:10;19.40;;;14.38;;
29370;SDS011;16357;52.188;7.838;2023-02-13T00:07:36;17.70;;;13.68;;
29370;SDS011;16357;52.188;7.838;2023-02-13T00:10:03;19.98;;;14.10;;
29370;SDS011;16357;52.188;7.838;2023-02-13T00:12:30;20.95;;;14.00;;
29370;SDS011;16357;52.188;7.838;2023-02-13T00:14:56;19.80;;;13.52;;
29370;SDS011;16357;52.188;7.838;2023-02-13T00:17:24;20.92;;;14.27;;
29370;SDS011;16357;52.188;7.838;2023-02-13T00:19:51;21.90;;;15.55;;
29370;SDS011;16357;52.188;7.838;2023-02-13T00:22:17;20.90;;;14.65;;
29370;SDS011;16357;52.188;7.838;2023-02-13T00:24:44;19.50;;;14.65;;
29370;SDS011;16357;52.188;7.838;2023-02-13T00:27:11;20.92;;;15.90;;
29370;SDS011;16357;52.188;7.838;2023-02-13T00:29:38;20.42;;;15.77;;
29370;SDS011;16357;52.188;7.838;2023-02-13T00:32:04;24.63;;;16.15;;
29370;SDS011;16357;52.188;7.838;2023-02-13T00:34:31;23.25;;;16.77;;
29370;SDS011;16357;52.188;7.838;2023-02-13T00:36:57;22.65;;;16.70;;
29370;SDS011;16357;52.188;7.838;2023-02-13T00:39:23;21.85;;;15.70;;
29370;SDS011;16357;52.188;7.838;2023-02-13T00:41:50;21.95;;;15.55;;
29370;SDS011;16357;52.188;7.838;2023-02-13T00:44:16;21.20;;;15.95;;
29370;SDS011;16357;52.188;7.838;2023-02-13T00:46:43;20.75;;;15.40;;
29370;SDS011;16357;52.188;7.838;2023-02-13T00:49:09;24.80;;;16.98;;
29370;SDS011;16357;52.188;7.838;2023-02-13T00:51:36;23.67;;;16.00;;
29370;SDS011;16357;52.188;7.838;2023-02-13T00:54:02;22.67;;;15.07;;
29370;SDS011;16357;52.188;7.838;2023-02-13T00:56:28;22.55;;;15.93;;
29370;SDS011;16357;52.188;7.838;2023-02-13T00:58:55;22.38;;;15.43;;
29370;SDS011;16357;52.188;7.838;2023-02-13T01:01:21;22.52;;;16.08;;
29370;SDS011;16357;52.188;7.838;2023-02-13T01:03:48;25.10;;;16.65;;
29370;SDS011;16357;52.188;7.838;2023-02-13T01:06:14;23.52;;;16.23;;
29370;SDS011;16357;52.188;7.838;2023-02-13T01:08:41;20.88;;;15.25;;
29370;SDS011;16357;52.188;7.838;2023-02-13T01:11:07;21.23;;;15.25;;
29370;SDS011;16357;52.188;7.838;2023-02-13T01:13:34;19.65;;;15.00;;
29370;SDS011;16357;52.188;7.838;2023-02-13T01:16:01;20.73;;;15.13;;
29370;SDS011;16357;52.188;7.838;2023-02-13T01:18:27;19.48;;;14.70;;
29370;SDS011;16357;52.188;7.838;2023-02-13T01:20:55;22.98;;;16.13;;
29370;SDS011;16357;52.188;7.838;2023-02-13T01:23:33;20.73;;;15.30;;
29370;SDS011;16357;52.188;7.838;2023-02-13T01:26:03;22.60;;;16.10;;
29370;SDS011;16357;52.188;7.838;2023-02-13T01:28:31;23.83;;;16.35;;
29370;SDS011;16357;52.188;7.838;2023-02-13T01:30:58;21.92;;;15.85;;
29370;SDS011;16357;52.188;7.838;2023-02-13T01:33:26;21.90;;;16.02;;
29370;SDS011;16357;52.188;7.838;2023-02-13T01:35:53;21.85;;;14.88;;
29370;SDS011;16357;52.188;7.838;2023-02-13T01:38:20;25.33;;;16.02;;
29370;SDS011;16357;52.188;7.838;2023-02-13T01:40:47;19.77;;;15.13;;
29370;SDS011;16357;52.188;7.838;2023-02-13T01:43:14;22.25;;;15.82;;
29370;SDS011;16357;52.188;7.838;2023-02-13T01:45:41;22.00;;;15.38;;
29370;SDS011;16357;52.188;7.838;2023-02-13T01:48:17;20.95;;;15.20;;
29370;SDS011;16357;52.188;7.838;2023-02-13T01:50:47;19.77;;;14.82;;
29370;SDS011;16357;52.188;7.838;2023-02-13T01:56:04;20.23;;;14.93;;
29370;SDS011;16357;52.188;7.838;2023-02-13T01:58:38;20.55;;;15.07;;
29370;SDS011;16357;52.188;7.838;2023-02-13T02:01:08;21.23;;;15.55;;
29370;SDS011;16357;52.188;7.838;2023-02-13T02:03:37;22.13;;;16.20;;
29370;SDS011;16357;52.188;7.838;2023-02-13T02:06:35;21.52;;;15.07;;
29370;SDS011;16357;52.188;7.838;2023-02-13T02:09:23;19.67;;;14.57;;
29370;SDS011;16357;52.188;7.838;2023-02-13T02:11:55;22.67;;;14.50;;
29370;SDS011;16357;52.188;7.838;2023-02-13T02:14:26;21.05;;;15.18;;
29370;SDS011;16357;52.188;7.838;2023-02-13T02:16:53;23.52;;;16.27;;
29370;SDS011;16357;52.188;7.838;2023-02-13T02:19:24;22.45;;;15.90;;
29370;SDS011;16357;52.188;7.838;2023-02-13T02:21:59;23.20;;;16.58;;
29370;SDS011;16357;52.188;7.838;2023-02-13T02:24:53;21.20;;;14.80;;
29370;SDS011;16357;52.188;7.838;2023-02-13T02:30:48;21.73;;;15.13;;
29370;SDS011;16357;52.188;7.838;2023-02-13T02:36:23;18.63;;;14.35;;
29370;SDS011;16357;52.188;7.838;2023-02-13T02:41:58;21.50;;;14.48;;
29370;SDS011;16357;52.188;7.838;2023-02-13T02:45:01;22.13;;;15.85;;
29370;SDS011;16357;52.188;7.838;2023-02-13T02:47:55;20.02;;;15.30;;
29370;SDS011;16357;52.188;7.838;2023-02-13T02:50:50;23.17;;;15.73;;
29370;SDS011;16357;52.188;7.838;2023-02-13T02:58:42;21.60;;;16.15;;
29370;SDS011;16357;52.188;7.838;2023-02-13T03:01:31;21.80;;;15.65;;
29370;SDS011;16357;52.188;7.838;2023-02-13T03:07:06;19.27;;;14.10;;
29370;SDS011;16357;52.188;7.838;2023-02-13T03:09:36;21.70;;;15.25;;
29370;SDS011;16357;52.188;7.838;2023-02-13T03:12:26;20.45;;;15.15;;
29370;SDS011;16357;52.188;7.838;2023-02-13T03:15:17;21.23;;;15.20;;
29370;SDS011;16357;52.188;7.838;2023-02-13T03:17:44;21.83;;;15.60;;
29370;SDS011;16357;52.188;7.838;2023-02-13T03:20:45;21.50;;;16.15;;
29370;SDS011;16357;52.188;7.838;2023-02-13T03:32:16;20.60;;;14.25;;
29370;SDS011;16357;52.188;7.838;2023-02-13T03:34:53;22.77;;;15.65;;
29370;SDS011;16357;52.188;7.838;2023-02-13T03:37:48;21.50;;;15.32;;
29370;SDS011;16357;52.188;7.838;2023-02-13T03:43:10;19.48;;;14.35;;
29370;SDS011;16357;52.188;7.838;2023-02-13T03:45:40;21.50;;;15.50;;
29370;SDS011;16357;52.188;7.838;2023-02-13T03:48:24;22.35;;;14.85;;
29370;SDS011;16357;52.188;7.838;2023-02-13T03:51:25;22.10;;;14.95;;
29370;SDS011;16357;52.188;7.838;2023-02-13T03:53:57;25.10;;;15.18;;
29370;SDS011;16357;52.188;7.838;2023-02-13T03:56:26;23.38;;;15.20;;
29370;SDS011;16357;52.188;7.838;2023-02-13T03:59:17;24.02;;;15.65;;
29370;SDS011;16357;52.188;7.838;2023-02-13T04:01:53;23.73;;;15.35;;
29370;SDS011;16357;52.188;7.838;2023-02-13T04:04:42;23.27;;;15.00;;
29370;SDS011;16357;52.188;7.838;2023-02-13T04:07:15;20.90;;;15.02;;
29370;SDS011;16357;52.188;7.838;2023-02-13T04:09:59;21.63;;;14.82;;
29370;SDS011;16357;52.188;7.838;2023-02-13T04:12:35;22.30;;;14.80;;
29370;SDS011;16357;52.188;7.838;2023-02-13T04:15:20;21.25;;;14.82;;
29370;SDS011;16357;52.188;7.838;2023-02-13T04:17:57;20.33;;;14.77;;
29370;SDS011;16357;52.188;7.838;2023-02-13T04:20:31;21.35;;;14.75;;
29370;SDS011;16357;52.188;7.838;2023-02-13T04:22:57;20.10;;;14.88;;
29370;SDS011;16357;52.188;7.838;2023-02-13T04:25:30;21.95;;;15.45;;
29370;SDS011;16357;52.188;7.838;2023-02-13T04:27:56;21.70;;;14.77;;
29370;SDS011;16357;52.188;7.838;2023-02-13T04:30:22;19.75;;;14.60;;
29370;SDS011;16357;52.188;7.838;2023-02-13T04:32:49;22.92;;;16.00;;
29370;SDS011;16357;52.188;7.838;2023-02-13T04:35:17;22.95;;;16.45;;
29370;SDS011;16357;52.188;7.838;2023-02-13T04:37:44;21.38;;;15.32;;
29370;SDS011;16357;52.188;7.838;2023-02-13T04:40:10;22.10;;;15.43;;
29370;SDS011;16357;52.188;7.838;2023-02-13T04:42:37;19.98;;;14.77;;
29370;SDS011;16357;52.188;7.838;2023-02-13T04:45:04;21.70;;;15.07;;
29370;SDS011;16357;52.188;7.838;2023-02-13T04:47:31;23.38;;;15.52;;
29370;SDS011;16357;52.188;7.838;2023-02-13T04:49:58;23.40;;;15.25;;
29370;SDS011;16357;52.188;7.838;2023-02-13T04:52:24;23.10;;;16.20;;
29370;SDS011;16357;52.188;7.838;2023-02-13T04:54:50;23.65;;;15.48;;
29370;SDS011;16357;52.188;7.838;2023-02-13T04:57:17;25.42;;;16.38;;
29370;SDS011;16357;52.188;7.838;2023-02-13T04:59:43;21.63;;;15.73;;
29370;SDS011;16357;52.188;7.838;2023-02-13T05:02:09;22.80;;;16.25;;
29370;SDS011;16357;52.188;7.838;2023-02-13T05:04:36;23.10;;;15.95;;
29370;SDS011;16357;52.188;7.838;2023-02-13T05:07:02;20.55;;;15.15;;
29370;SDS011;16357;52.188;7.838;2023-02-13T05:09:28;20.42;;;15.23;;
29370;SDS011;16357;52.188;7.838;2023-02-13T05:11:55;22.73;;;15.95;;
29370;SDS011;16357;52.188;7.838;2023-02-13T05:14:21;23.95;;;15.82;;
29370;SDS011;16357;52.188;7.838;2023-02-13T05:16:47;21.70;;;14.85;;
29370;SDS011;16357;52.188;7.838;2023-02-13T05:19:15;22.92;;;15.32;;
29370;SDS011;16357;52.188;7.838;2023-02-13T05:21:42;21.48;;;15.77;;
29370;SDS011;16357;52.188;7.838;2023-02-13T05:24:27;21.87;;;15.67;;
29370;SDS011;16357;52.188;7.838;2023-02-13T05:26:53;22.77;;;14.57;;
29370;SDS011;16357;52.188;7.838;2023-02-13T05:29:20;21.15;;;14.55;;
29370;SDS011;16357;52.188;7.838;2023-02-13T05:31:51;23.88;;;15.55;;
29370;SDS011;16357;52.188;7.838;2023-02-13T05:34:19;22.33;;;15.35;;
29370;SDS011;16357;52.188;7.838;2023-02-13T05:36:47;21.67;;;15.13;;
29370;SDS011;16357;52.188;7.838;2023-02-13T05:39:13;21.98;;;15.32;;
29370;SDS011;16357;52.188;7.838;2023-02-13T05:41:43;23.38;;;15.50;;
29370;SDS011;16357;52.188;7.838;2023-02-13T05:44:11;23.55;;;16.38;;
29370;SDS011;16357;52.188;7.838;2023-02-13T05:46:39;22.50;;;16.30;;
29370;SDS011;16357;52.188;7.838;2023-02-13T05:49:07;24.27;;;15.90;;
29370;SDS011;16357;52.188;7.838;2023-02-13T05:51:35;25.60;;;16.48;;
29370;SDS011;16357;52.188;7.838;2023-02-13T05:54:02;23.42;;;15.95;;
29370;SDS011;16357;52.188;7.838;2023-02-13T05:56:28;24.00;;;16.08;;
29370;SDS011;16357;52.188;7.838;2023-02-13T05:58:55;21.95;;;15.07;;
29370;SDS011;16357;52.188;7.838;2023-02-13T06:01:23;22.02;;;15.40;;
29370;SDS011;16357;52.188;7.838;2023-02-13T06:03:50;27.35;;;16.80;;
29370;SDS011;16357;52.188;7.838;2023-02-13T06:06:16;25.50;;;16.55;;
29370;SDS011;16357;52.188;7.838;2023-02-13T06:08:43;22.40;;;15.55;;
29370;SDS011;16357;52.188;7.838;2023-02-13T06:11:09;22.23;;;14.60;;
29370;SDS011;16357;52.188;7.838;2023-02-13T06:13:36;22.45;;;15.50;;
29370;SDS011;16357;52.188;7.838;2023-02-13T06:16:06;25.90;;;16.08;;
29370;SDS011;16357;52.188;7.838;2023-02-13T06:18:33;22.60;;;15.45;;
29370;SDS011;16357;52.188;7.838;2023-02-13T06:21:00;23.02;;;15.73;;
29370;SDS011;16357;52.188;7.838;2023-02-13T06:23:27;24.02;;;15.30;;
29370;SDS011;16357;52.188;7.838;2023-02-13T06:25:54;25.55;;;16.27;;
29370;SDS011;16357;52.188;7.838;2023-02-13T06:28:20;24.25;;;15.73;;
29370;SDS011;16357;52.188;7.838;2023-02-13T06:30:47;23.05;;;15.43;;
29370;SDS011;16357;52.188;7.838;2023-02-13T06:33:14;21.50;;;14.85;;
29370;SDS011;16357;52.188;7.838;2023-02-13T06:35:40;22.23;;;14.95;;
29370;SDS011;16357;52.188;7.838;2023-02-13T06:38:06;21.40;;;14.32;;
29370;SDS011;16357;52.188;7.838;2023-02-13T06:40:33;21.23;;;14.43;;
29370;SDS011;16357;52.188;7.838;2023-02-13T06:42:59;23.17;;;16.50;;
29370;SDS011;16357;52.188;7.838;2023-02-13T06:45:25;19.10;;;13.30;;
29370;SDS011;16357;52.188;7.838;2023-02-13T06:47:52;22.92;;;15.15;;
29370;SDS011;16357;52.188;7.838;2023-02-13T06:50:19;21.05;;;14.68;;
29370;SDS011;16357;52.188;7.838;2023-02-13T06:52:49;23.52;;;14.13;;
29370;SDS011;16357;52.188;7.838;2023-02-13T06:55:17;21.27;;;14.50;;
29370;SDS011;16357;52.188;7.838;2023-02-13T06:57:44;21.30;;;14.38;;
29370;SDS011;16357;52.188;7.838;2023-02-13T07:00:11;22.40;;;15.55;;
29370;SDS011;16357;52.188;7.838;2023-02-13T07:02:39;22.67;;;14.90;;
29370;SDS011;16357;52.188;7.838;2023-02-13T07:05:07;22.40;;;13.85;;
29370;SDS011;16357;52.188;7.838;2023-02-13T07:07:34;23.83;;;14.68;;
29370;SDS011;16357;52.188;7.838;2023-02-13T07:10:02;23.08;;;15.27;;
29370;SDS011;16357;52.188;7.838;2023-02-13T07:12:34;20.75;;;14.10;;
29370;SDS011;16357;52.188;7.838;2023-02-13T07:15:04;20.80;;;14.18;;
29370;SDS011;16357;52.188;7.838;2023-02-13T07:17:33;22.27;;;15.20;;
29370;SDS011;16357;52.188;7.838;2023-02-13T07:19:59;21.35;;;14.68;;
29370;SDS011;16357;52.188;7.838;2023-02-13T07:22:26;22.65;;;14.57;;
29370;SDS011;16357;52.188;7.838;2023-02-13T07:24:52;22.33;;;14.05;;
29370;SDS011;16357;52.188;7.838;2023-02-13T07:27:19;22.25;;;14.73;;
29370;SDS011;16357;52.188;7.838;2023-02-13T07:29:48;21.17;;;14.82;;
29370;SDS011;16357;52.188;7.838;2023-02-13T07:32:15;20.15;;;13.73;;
29370;SDS011;16357;52.188;7.838;2023-02-13T07:34:44;20.55;;;13.82;;
29370;SDS011;16357;52.188;7.838;2023-02-13T07:37:27;18.08;;;13.02;;
29370;SDS011;16357;52.188;7.838;2023-02-13T07:39:54;20.83;;;13.25;;
29370;SDS011;16357;52.188;7.838;2023-02-13T07:42:20;21.63;;;14.48;;
29370;SDS011;16357;52.188;7.838;2023-02-13T07:44:47;22.17;;;14.35;;
29370;SDS011;16357;52.188;7.838;2023-02-13T07:47:13;23.52;;;16.35;;
29370;SDS011;16357;52.188;7.838;2023-02-13T07:49:40;21.50;;;14.82;;
29370;SDS011;16357;52.188;7.838;2023-02-13T07:52:07;21.00;;;14.30;;
29370;SDS011;16357;52.188;7.838;2023-02-13T07:54:33;20.20;;;13.57;;
29370;SDS011;16357;52.188;7.838;2023-02-13T07:56:59;19.77;;;13.18;;
29370;SDS011;16357;52.188;7.838;2023-02-13T07:59:26;16.48;;;12.07;;
29370;SDS011;16357;52.188;7.838;2023-02-13T08:01:52;19.02;;;12.77;;
29370;SDS011;16357;52.188;7.838;2023-02-13T08:04:19;18.48;;;12.57;;
29370;SDS011;16357;52.188;7.838;2023-02-13T08:06:45;19.95;;;12.68;;
29370;SDS011;16357;52.188;7.838;2023-02-13T08:09:18;18.70;;;12.82;;
29370;SDS011;16357;52.188;7.838;2023-02-13T08:12:06;16.75;;;12.25;;
29370;SDS011;16357;52.188;7.838;2023-02-13T08:14:34;16.23;;;12.23;;
29370;SDS011;16357;52.188;7.838;2023-02-13T08:17:00;18.13;;;12.40;;
29370;SDS011;16357;52.188;7.838;2023-02-13T08:19:27;17.40;;;12.23;;
29370;SDS011;16357;52.188;7.838;2023-02-13T08:21:53;18.83;;;12.50;;
29370;SDS011;16357;52.188;7.838;2023-02-13T08:24:20;18.10;;;12.38;;
29370;SDS011;16357;52.188;7.838;2023-02-13T08:26:46;22.65;;;12.93;;
29370;SDS011;16357;52.188;7.838;2023-02-13T08:29:13;19.80;;;13.85;;
29370;SDS011;16357;52.188;7.838;2023-02-13T08:31:39;19.67;;;12.35;;
29370;SDS011;16357;52.188;7.838;2023-02-13T08:34:06;21.92;;;12.27;;
29370;SDS011;16357;52.188;7.838;2023-02-13T08:36:32;17.10;;;11.93;;
29370;SDS011;16357;52.188;7.838;2023-02-13T08:38:59;18.92;;;12.32;;
29370;SDS011;16357;52.188;7.838;2023-02-13T08:41:25;15.38;;;11.15;;
29370;SDS011;16357;52.188;7.838;2023-02-13T08:43:52;16.55;;;12.02;;
29370;SDS011;16357;52.188;7.838;2023-02-13T08:46:19;16.10;;;11.95;;
29370;SDS011;16357;52.188;7.838;2023-02-13T08:48:46;15.50;;;11.30;;
29370;SDS011;16357;52.188;7.838;2023-02-13T08:51:12;15.43;;;10.77;;
29370;SDS011;16357;52.188;7.838;2023-02-13T08:53:39;18.25;;;12.82;;
29370;SDS011;16357;52.188;7.838;2023-02-13T08:56:07;17.20;;;11.38;;
29370;SDS011;16357;52.188;7.838;2023-02-13T08:58:34;16.13;;;10.95;;
29370;SDS011;16357;52.188;7.838;2023-02-13T09:01:04;16.05;;;11.35;;
29370;SDS011;16357;52.188;7.838;2023-02-13T09:03:32;15.20;;;11.23;;
29370;SDS011;16357;52.188;7.838;2023-02-13T09:05:59;15.05;;;11.13;;
29370;SDS011;16357;52.188;7.838;2023-02-13T09:08:27;17.15;;;11.25;;
29370;SDS011;16357;52.188;7.838;2023-02-13T09:10:54;14.85;;;10.45;;
29370;SDS011;16357;52.188;7.838;2023-02-13T09:13:23;14.57;;;10.50;;
29370;SDS011;16357;52.188;7.838;2023-02-13T09:15:49;14.60;;;10.25;;
29370;SDS011;16357;52.188;7.838;2023-02-13T09:18:16;14.48;;;10.15;;
29370;SDS011;16357;52.188;7.838;2023-02-13T09:20:42;13.95;;;10.02;;
29370;SDS011;16357;52.188;7.838;2023-02-13T09:23:08;14.48;;;10.32;;
29370;SDS011;16357;52.188;7.838;2023-02-13T09:25:35;37.97;;;22.42;;
29370;SDS011;16357;52.188;7.838;2023-02-13T09:28:01;37.03;;;22.00;;
29370;SDS011;16357;52.188;7.838;2023-02-13T09:30:28;23.92;;;14.93;;
29370;SDS011;16357;52.188;7.838;2023-02-13T09:32:54;18.58;;;12.20;;
29370;SDS011;16357;52.188;7.838;2023-02-13T09:35:21;12.23;;;9.65;;
29370;SDS011;16357;52.188;7.838;2023-02-13T09:37:48;12.00;;;9.30;;
29370;SDS011;16357;52.188;7.838;2023-02-13T09:40:20;14.10;;;10.40;;
29370;SDS011;16357;52.188;7.838;2023-02-13T09:42:50;12.63;;;9.50;;
29370;SDS011;16357;52.188;7.838;2023-02-13T09:45:19;12.90;;;8.93;;
29370;SDS011;16357;52.188;7.838;2023-02-13T09:47:47;16.70;;;8.90;;
29370;SDS011;16357;52.188;7.838;2023-02-13T09:52:49;11.35;;;8.45;;
29370;SDS011;16357;52.188;7.838;2023-02-13T09:55:20;11.15;;;8.18;;
29370;SDS011;16357;52.188;7.838;2023-02-13T09:57:56;11.63;;;8.27;;
29370;SDS011;16357;52.188;7.838;2023-02-13T10:00:43;10.32;;;8.18;;
29370;SDS011;16357;52.188;7.838;2023-02-13T10:03:40;11.50;;;7.72;;
29370;SDS011;16357;52.188;7.838;2023-02-13T10:14:16;9.88;;;7.78;;
29370;SDS011;16357;52.188;7.838;2023-02-13T10:16:54;10.15;;;8.02;;
29370;SDS011;16357;52.188;7.838;2023-02-13T10:22:12;8.98;;;8.05;;
29370;SDS011;16357;52.188;7.838;2023-02-13T10:24:43;11.65;;;9.05;;
29370;SDS011;16357;52.188;7.838;2023-02-13T10:27:20;9.77;;;8.15;;
29370;SDS011;16357;52.188;7.838;2023-02-13T10:30:00;10.18;;;8.05;;
29370;SDS011;16357;52.188;7.838;2023-02-13T10:35:17;10.88;;;8.82;;
29370;SDS011;16357;52.188;7.838;2023-02-13T10:38:11;10.70;;;8.25;;
29370;SDS011;16357;52.188;7.838;2023-02-13T10:43:34;9.73;;;8.18;;
29370;SDS011;16357;52.188;7.838;2023-02-13T10:52:43;11.02;;;9.27;;
29370;SDS011;16357;52.188;7.838;2023-02-13T10:57:55;10.80;;;9.10;;
29370;SDS011;16357;52.188;7.838;2023-02-13T11:00:41;10.88;;;9.43;;
29370;SDS011;16357;52.188;7.838;2023-02-13T11:03:18;12.02;;;9.95;;
29370;SDS011;16357;52.188;7.838;2023-02-13T11:05:47;11.85;;;9.80;;
29370;SDS011;16357;52.188;7.838;2023-02-13T11:08:16;13.85;;;9.27;;
29370;SDS011;16357;52.188;7.838;2023-02-13T11:10:45;10.55;;;9.18;;
29370;SDS011;16357;52.188;7.838;2023-02-13T11:13:19;12.82;;;10.77;;
29370;SDS011;16357;52.188;7.838;2023-02-13T11:15:57;11.93;;;10.18;;
29370;SDS011;16357;52.188;7.838;2023-02-13T11:18:28;12.82;;;10.65;;
29370;SDS011;16357;52.188;7.838;2023-02-13T11:21:17;11.88;;;10.60;;
29370;SDS011;16357;52.188;7.838;2023-02-13T11:23:53;11.63;;;10.20;;
29370;SDS011;16357;52.188;7.838;2023-02-13T11:26:23;11.90;;;10.15;;
29370;SDS011;16357;52.188;7.838;2023-02-13T11:29:05;12.15;;;10.10;;
29370;SDS011;16357;52.188;7.838;2023-02-13T11:31:43;11.15;;;9.95;;
29370;SDS011;16357;52.188;7.838;2023-02-13T11:34:26;10.77;;;9.68;;
29370;SDS011;16357;52.188;7.838;2023-02-13T11:37:08;9.77;;;8.75;;
29370;SDS011;16357;52.188;7.838;2023-02-13T11:39:40;10.35;;;8.55;;
29370;SDS011;16357;52.188;7.838;2023-02-13T11:44:58;11.13;;;8.27;;
29370;SDS011;16357;52.188;7.838;2023-02-13T11:47:40;9.95;;;8.55;;
29370;SDS011;16357;52.188;7.838;2023-02-13T11:52:55;9.85;;;8.25;;
29370;SDS011;16357;52.188;7.838;2023-02-13T11:55:26;9.02;;;7.80;;
29370;SDS011;16357;52.188;7.838;2023-02-13T11:58:00;9.13;;;7.85;;
29370;SDS011;16357;52.188;7.838;2023-02-13T12:00:30;10.30;;;8.23;;
29370;SDS011;16357;52.188;7.838;2023-02-13T12:05:58;10.07;;;8.43;;
29370;SDS011;16357;52.188;7.838;2023-02-13T12:08:25;9.63;;;8.18;;
29370;SDS011;16357;52.188;7.838;2023-02-13T12:10:53;10.20;;;8.48;;
29370;SDS011;16357;52.188;7.838;2023-02-13T12:13:26;10.27;;;8.25;;
29370;SDS011;16357;52.188;7.838;2023-02-13T12:16:00;9.77;;;8.50;;
29370;SDS011;16357;52.188;7.838;2023-02-13T12:18:35;10.27;;;8.70;;
29370;SDS011;16357;52.188;7.838;2023-02-13T12:26:32;9.73;;;8.10;;
29370;SDS011;16357;52.188;7.838;2023-02-13T12:29:17;11.32;;;8.25;;
29370;SDS011;16357;52.188;7.838;2023-02-13T12:31:59;11.38;;;7.97;;
29370;SDS011;16357;52.188;7.838;2023-02-13T12:34:39;11.65;;;8.73;;
29370;SDS011;16357;52.188;7.838;2023-02-13T12:43:01;9.98;;;7.97;;
29370;SDS011;16357;52.188;7.838;2023-02-13T12:45:58;13.48;;;8.25;;
29370;SDS011;16357;52.188;7.838;2023-02-13T12:51:11;12.18;;;8.98;;
29370;SDS011;16357;52.188;7.838;2023-02-13T12:53:59;10.77;;;8.20;;
29370;SDS011;16357;52.188;7.838;2023-02-13T12:56:38;9.43;;;7.72;;
29370;SDS011;16357;52.188;7.838;2023-02-13T12:59:21;10.13;;;7.93;;
29370;SDS011;16357;52.188;7.838;2023-02-13T13:02:26;9.75;;;7.70;;
29370;SDS011;16357;52.188;7.838;2023-02-13T13:08:17;9.40;;;7.57;;
29370;SDS011;16357;52.188;7.838;2023-02-13T13:13:57;9.38;;;6.85;;
29370;SDS011;16357;52.188;7.838;2023-02-13T13:16:32;9.00;;;7.30;;
29370;SDS011;16357;52.188;7.838;2023-02-13T13:19:26;8.73;;;7.28;;
29370;SDS011;16357;52.188;7.838;2023-02-13T13:22:13;8.25;;;6.97;;
29370;SDS011;16357;52.188;7.838;2023-02-13T13:27:16;11.57;;;7.35;;
29370;SDS011;16357;52.188;7.838;2023-02-13T13:29:50;10.40;;;7.20;;
29370;SDS011;16357;52.188;7.838;2023-02-13T13:32:24;8.68;;;7.18;;
29370;SDS011;16357;52.188;7.838;2023-02-13T13:34:52;11.80;;;7.57;;
29370;SDS011;16357;52.188;7.838;2023-02-13T13:37:23;11.65;;;7.43;;
29370;SDS011;16357;52.188;7.838;2023-02-13T13:45:31;8.43;;;7.13;;
29370;SDS011;16357;52.188;7.838;2023-02-13T13:48:14;12.52;;;7.30;;
29370;SDS011;16357;52.188;7.838;2023-02-13T13:50:46;11.30;;;7.43;;
29370;SDS011;16357;52.188;7.838;2023-02-13T13:53:15;9.18;;;7.53;;
29370;SDS011;16357;52.188;7.838;2023-02-13T13:58:22;9.55;;;7.32;;
29370;SDS011;16357;52.188;7.838;2023-02-13T14:03:40;12.00;;;7.80;;
29370;SDS011;16357;52.188;7.838;2023-02-13T14:06:18;9.38;;;7.13;;
29370;SDS011;16357;52.188;7.838;2023-02-13T14:11:53;8.20;;;7.30;;
29370;SDS011;16357;52.188;7.838;2023-02-13T14:14:42;10.02;;;6.57;;
29370;SDS011;16357;52.188;7.838;2023-02-13T14:17:08;8.57;;;6.93;;
29370;SDS011;16357;52.188;7.838;2023-02-13T14:19:39;8.30;;;6.80;;
29370;SDS011;16357;52.188;7.838;2023-02-13T14:25:03;8.95;;;6.43;;
29370;SDS011;16357;52.188;7.838;2023-02-13T14:27:35;9.00;;;7.32;;
29370;SDS011;16357;52.188;7.838;2023-02-13T14:30:04;8.10;;;6.63;;
29370;SDS011;16357;52.188;7.838;2023-02-13T14:32:49;8.00;;;6.45;;
29370;SDS011;16357;52.188;7.838;2023-02-13T14:35:26;7.60;;;6.13;;
29370;SDS011;16357;52.188;7.838;2023-02-13T14:37:56;7.18;;;6.30;;
29370;SDS011;16357;52.188;7.838;2023-02-13T14:40:29;7.45;;;6.25;;
29370;SDS011;16357;52.188;7.838;2023-02-13T14:48:33;6.93;;;6.18;;
29370;SDS011;16357;52.188;7.838;2023-02-13T14:51:04;6.80;;;5.85;;
29370;SDS011;16357;52.188;7.838;2023-02-13T14:53:55;8.75;;;6.78;;
29370;SDS011;16357;52.188;7.838;2023-02-13T14:56:28;8.37;;;6.80;;
29370;SDS011;16357;52.188;7.838;2023-02-13T15:01:58;8.13;;;6.07;;
29370;SDS011;16357;52.188;7.838;2023-02-13T15:04:43;8.32;;;6.88;;
29370;SDS011;16357;52.188;7.838;2023-02-13T15:07:13;8.93;;;7.03;;
29370;SDS011;16357;52.188;7.838;2023-02-13T15:09:50;7.75;;;6.40;;
29370;SDS011;16357;52.188;7.838;2023-02-13T15:12:34;8.15;;;6.40;;
29370;SDS011;16357;52.188;7.838;2023-02-13T15:15:02;7.82;;;6.63;;
29370;SDS011;16357;52.188;7.838;2023-02-13T15:17:48;8.40;;;6.90;;
29370;SDS011;16357;52.188;7.838;2023-02-13T15:22:50;9.70;;;7.43;;
29370;SDS011;16357;52.188;7.838;2023-02-13T15:25:37;8.50;;;6.93;;
29370;SDS011;16357;52.188;7.838;2023-02-13T15:28:06;9.88;;;7.25;;
29370;SDS011;16357;52.188;7.838;2023-02-13T15:33:18;8.25;;;6.43;;
29370;SDS011;16357;52.188;7.838;2023-02-13T15:36:00;7.53;;;6.63;;
29370;SDS011;16357;52.188;7.838;2023-02-13T15:38:33;7.70;;;6.68;;
29370;SDS011;16357;52.188;7.838;2023-02-13T15:43:34;8.63;;;6.80;;
29370;SDS011;16357;52.188;7.838;2023-02-13T15:46:04;10.88;;;7.22;;
29370;SDS011;16357;52.188;7.838;2023-02-13T15:48:42;9.93;;;7.65;;
29370;SDS011;16357;52.188;7.838;2023-02-13T15:51:16;8.73;;;7.15;;
29370;SDS011;16357;52.188;7.838;2023-02-13T15:53:54;9.75;;;7.57;;
29370;SDS011;16357;52.188;7.838;2023-02-13T15:56:26;8.68;;;6.93;;
29370;SDS011;16357;52.188;7.838;2023-02-13T15:58:53;10.07;;;7.57;;
29370;SDS011;16357;52.188;7.838;2023-02-13T16:01:21;8.55;;;7.40;;
29370;SDS011;16357;52.188;7.838;2023-02-13T16:03:49;9.40;;;7.20;;
29370;SDS011;16357;52.188;7.838;2023-02-13T16:06:19;9.20;;;7.45;;
29370;SDS011;16357;52.188;7.838;2023-02-13T16:08:55;9.48;;;7.80;;
29370;SDS011;16357;52.188;7.838;2023-02-13T16:11:27;8.63;;;6.80;;
29370;SDS011;16357;52.188;7.838;2023-02-13T16:13:58;9.15;;;7.50;;
29370;SDS011;16357;52.188;7.838;2023-02-13T16:16:35;11.60;;;8.10;;
29370;SDS011;16357;52.188;7.838;2023-02-13T16:19:40;11.55;;;8.68;;
29370;SDS011;16357;52.188;7.838;2023-02-13T16:27:43;15.00;;;9.18;;
29370;SDS011;16357;52.188;7.838;2023-02-13T16:30:26;10.38;;;8.60;;
29370;SDS011;16357;52.188;7.838;2023-02-13T16:33:39;10.88;;;8.05;;
29370;SDS011;16357;52.188;7.838;2023-02-13T16:35:40;11.88;;;8.13;;
29370;SDS011;16357;52.188;7.838;2023-02-13T16:40:53;13.57;;;9.02;;
29370;SDS011;16357;52.188;7.838;2023-02-13T16:43:38;11.65;;;8.60;;
29370;SDS011;16357;52.188;7.838;2023-02-13T16:46:11;16.27;;;9.77;;
29370;SDS011;16357;52.188;7.838;2023-02-13T16:48:43;12.55;;;8.98;;
29370;SDS011;16357;52.188;7.838;2023-02-13T16:51:11;11.80;;;9.02;;
29370;SDS011;16357;52.188;7.838;2023-02-13T16:53:38;12.75;;;9.35;;
29370;SDS011;16357;52.188;7.838;2023-02-13T16:56:06;14.65;;;10.15;;
29370;SDS011;16357;52.188;7.838;2023-02-13T16:58:34;14.23;;;10.43;;
29370;SDS011;16357;52.188;7.838;2023-02-13T17:01:01;13.35;;;10.20;;
29370;SDS011;16357;52.188;7.838;2023-02-13T17:03:33;16.88;;;12.07;;
29370;SDS011;16357;52.188;7.838;2023-02-13T17:06:02;19.80;;;12.23;;
29370;SDS011;16357;52.188;7.838;2023-02-13T17:08:29;17.58;;;12.15;;